createdAt,value
2019-05-26T00:01:45.149Z,2.50
2019-05-26T00:03:46.417Z,2.58
2019-05-26T00:05:47.704Z,3.12
2019-05-26T00:07:48.972Z,2.77
2019-05-26T00:09:50.241Z,3.12
2019-05-26T00:11:51.510Z,3.15
2019-05-26T00:13:52.885Z,2.85
2019-05-26T00:15:54.162Z,2.92
2019-05-26T00:17:55.432Z,2.70
2019-05-26T00:19:56.701Z,2.90
2019-05-26T00:21:57.963Z,3.30
2019-05-26T00:23:59.223Z,2.95
2019-05-26T00:26:00.689Z,3.00
2019-05-26T00:28:02.961Z,3.67
2019-05-26T00:30:05.550Z,3.12
2019-05-26T00:32:06.914Z,2.77
2019-05-26T00:34:08.186Z,3.17
2019-05-26T00:36:09.650Z,3.25
2019-05-26T00:38:10.906Z,3.20
2019-05-26T00:40:12.477Z,3.00
2019-05-26T00:44:15.094Z,3.10
2019-05-26T00:46:16.373Z,3.50
2019-05-26T00:48:17.922Z,2.92
2019-05-26T00:50:19.305Z,2.58
2019-05-26T00:52:21.682Z,3.47
2019-05-26T00:54:22.959Z,3.37
2019-05-26T00:56:24.336Z,3.20
2019-05-26T00:58:26.037Z,2.70
2019-05-26T01:02:38.969Z,2.98
2019-05-26T01:04:40.239Z,3.08
2019-05-26T01:06:41.769Z,3.08
2019-05-26T01:08:43.042Z,2.70
2019-05-26T01:10:44.359Z,3.20
2019-05-26T01:12:45.634Z,3.22
2019-05-26T01:14:46.898Z,3.00
2019-05-26T01:16:48.418Z,2.67
2019-05-26T01:18:49.994Z,3.05
2019-05-26T01:20:51.307Z,3.45
2019-05-26T01:22:53.948Z,2.80
2019-05-26T01:24:55.498Z,2.80
2019-05-26T01:26:56.781Z,2.72
2019-05-26T01:28:58.043Z,3.00
2019-05-26T01:30:59.538Z,2.72
2019-05-26T01:33:00.819Z,3.10
2019-05-26T01:35:06.439Z,2.65
2019-05-26T01:37:07.959Z,3.08
2019-05-26T01:39:09.220Z,3.27
2019-05-26T01:41:10.494Z,3.52
2019-05-26T01:43:12.105Z,4.00
2019-05-26T01:47:14.549Z,3.10
2019-05-26T01:49:15.817Z,3.42
2019-05-26T01:51:17.093Z,3.70
2019-05-26T01:53:18.401Z,3.52
2019-05-26T01:55:19.662Z,3.47
2019-05-26T01:57:20.958Z,3.75
2019-05-26T01:59:31.145Z,3.67
2019-05-26T02:01:32.426Z,3.47
2019-05-26T02:03:34.046Z,3.70
2019-05-26T02:07:36.471Z,3.57
2019-05-26T02:09:37.740Z,3.70
2019-05-26T02:11:39.257Z,3.75
2019-05-26T02:13:40.513Z,3.87
2019-05-26T02:15:41.899Z,3.08
2019-05-26T02:17:43.505Z,3.83
2019-05-26T02:21:46.345Z,3.58
2019-05-26T02:25:48.967Z,3.67
2019-05-26T02:27:50.216Z,3.27
2019-05-26T02:29:51.496Z,3.62
2019-05-26T02:31:52.762Z,4.22
2019-05-26T02:33:54.427Z,3.83
2019-05-26T02:35:55.781Z,3.62
2019-05-26T02:37:57.038Z,3.83
2019-05-26T02:39:58.294Z,3.42
2019-05-26T02:41:59.661Z,3.25
2019-05-26T02:44:00.932Z,3.30
2019-05-26T02:46:02.230Z,3.30
2019-05-26T02:48:05.486Z,3.62
2019-05-26T02:50:07.443Z,3.62
2019-05-26T02:52:08.803Z,3.55
2019-05-26T02:54:10.161Z,3.27
2019-05-26T02:56:12.172Z,3.40
2019-05-26T02:58:13.505Z,3.40
2019-05-26T03:00:24.559Z,3.70
2019-05-26T03:02:26.500Z,3.83
2019-05-26T03:04:28.281Z,3.47
2019-05-26T03:06:30.354Z,3.58
2019-05-26T03:08:33.611Z,3.50
2019-05-26T03:10:35.926Z,3.12
2019-05-26T03:12:40.142Z,3.45
2019-05-26T03:14:42.800Z,3.10
2019-05-26T03:16:45.901Z,3.98
2019-05-26T03:18:49.707Z,3.60
2019-05-26T03:20:54.865Z,3.83
2019-05-26T03:22:57.078Z,3.17
2019-05-26T03:24:59.442Z,3.75
2019-05-26T03:27:00.806Z,3.70
2019-05-26T03:29:02.089Z,3.83
2019-05-26T03:31:03.390Z,3.90
2019-05-26T03:33:04.755Z,4.00
2019-05-26T03:35:07.018Z,2.95
2019-05-26T03:37:08.531Z,3.58
2019-05-26T03:39:09.797Z,4.00
2019-05-26T03:41:11.066Z,3.42
2019-05-26T03:43:12.450Z,3.52
2019-05-26T03:45:37.691Z,3.60
2019-05-26T03:47:38.969Z,3.50
2019-05-26T03:49:40.470Z,3.70
2019-05-26T03:51:41.750Z,4.08
2019-05-26T03:53:43.027Z,4.12
2019-05-26T03:55:44.406Z,4.25
2019-05-26T03:57:45.666Z,4.05
2019-05-26T03:59:47.081Z,4.28
2019-05-26T04:01:48.378Z,4.35
2019-05-26T04:03:49.636Z,3.58
2019-05-26T04:05:50.926Z,4.00
2019-05-26T04:07:52.200Z,4.22
2019-05-26T04:10:04.886Z,4.50
2019-05-26T04:11:57.044Z,4.40
2019-05-26T04:13:59.298Z,4.45
2019-05-26T04:16:00.776Z,4.72
2019-05-26T04:18:02.037Z,3.87
2019-05-26T04:20:04.961Z,4.35
2019-05-26T04:22:06.270Z,5.08
2019-05-26T04:24:07.706Z,4.62
2019-05-26T04:26:08.965Z,3.98
2019-05-26T04:28:10.242Z,4.40
2019-05-26T04:30:11.945Z,4.17
2019-05-26T04:34:14.602Z,4.28
2019-05-26T04:36:15.875Z,3.98
2019-05-26T04:38:17.401Z,4.10
2019-05-26T04:40:27.790Z,3.90
2019-05-26T04:42:23.162Z,4.55
2019-05-26T04:44:24.670Z,4.40
2019-05-26T04:46:26.187Z,4.97
2019-05-26T04:48:27.697Z,4.45
2019-05-26T04:50:28.961Z,4.78
2019-05-26T04:52:30.238Z,4.35
2019-05-26T04:54:31.494Z,4.80
2019-05-26T04:56:33.016Z,4.40
2019-05-26T04:58:34.284Z,4.75
2019-05-26T05:00:35.567Z,4.55
2019-05-26T05:02:36.833Z,4.50
2019-05-26T05:04:38.333Z,6.90
2019-05-26T05:06:39.616Z,9.05
2019-05-26T05:08:40.894Z,9.95
2019-05-26T05:10:43.086Z,10.53
2019-05-26T05:12:44.766Z,10.23
2019-05-26T05:14:46.024Z,10.30
2019-05-26T05:16:47.290Z,10.63
2019-05-26T05:18:49.806Z,11.10
2019-05-26T05:20:51.073Z,10.58
2019-05-26T05:22:52.437Z,10.98
2019-05-26T05:24:53.795Z,11.00
2019-05-26T05:26:55.066Z,10.85
2019-05-26T05:28:56.394Z,10.60
2019-05-26T05:30:57.900Z,10.93
2019-05-26T05:32:59.177Z,11.35
2019-05-26T05:35:00.441Z,10.68
2019-05-26T05:37:02.014Z,10.70
2019-05-26T05:41:06.025Z,11.22
2019-05-26T05:43:07.561Z,11.03
2019-05-26T05:45:10.221Z,10.75
2019-05-26T05:49:12.697Z,10.90
2019-05-26T05:51:14.048Z,10.18
2019-05-26T05:53:15.655Z,10.88
2019-05-26T05:55:18.082Z,10.68
2019-05-26T05:57:19.761Z,10.75
2019-05-26T05:59:21.036Z,11.43
2019-05-26T06:01:22.562Z,11.43
2019-05-26T06:03:24.106Z,11.40
2019-05-26T06:05:25.628Z,11.50
2019-05-26T06:07:26.889Z,12.07
2019-05-26T06:09:28.189Z,12.10
2019-05-26T06:11:29.444Z,12.58
2019-05-26T06:13:30.726Z,13.13
2019-05-26T06:15:32.025Z,12.82
2019-05-26T06:17:33.862Z,12.85
2019-05-26T06:19:35.487Z,13.83
2019-05-26T06:23:38.227Z,14.25
2019-05-26T06:25:40.573Z,13.45
2019-05-26T06:27:41.837Z,14.07
2019-05-26T06:29:57.807Z,15.00
2019-05-26T06:31:46.714Z,14.95
2019-05-26T06:33:48.112Z,14.65
2019-05-26T06:35:51.613Z,14.90
2019-05-26T06:37:52.932Z,15.23
2019-05-26T06:39:54.316Z,17.55
2019-05-26T06:41:55.985Z,16.52
2019-05-26T06:43:57.281Z,16.05
2019-05-26T06:45:58.566Z,15.90
2019-05-26T06:47:59.825Z,17.17
2019-05-26T06:50:02.104Z,16.62
2019-05-26T06:52:03.645Z,16.65
2019-05-26T06:56:06.454Z,16.15
2019-05-26T06:58:07.789Z,16.75
2019-05-26T07:00:10.170Z,14.95
2019-05-26T07:02:11.702Z,14.87
2019-05-26T07:04:13.213Z,14.40
2019-05-26T07:06:14.713Z,14.68
2019-05-26T07:08:15.977Z,15.40
2019-05-26T07:10:17.453Z,14.58
2019-05-26T07:12:18.776Z,14.58
2019-05-26T07:14:20.059Z,14.33
2019-05-26T07:16:36.873Z,13.60
2019-05-26T07:18:24.482Z,13.85
2019-05-26T07:20:25.995Z,13.53
2019-05-26T07:22:27.424Z,13.93
2019-05-26T07:24:29.600Z,13.38
2019-05-26T07:26:31.083Z,14.75
2019-05-26T07:28:32.417Z,14.53
2019-05-26T07:30:33.689Z,14.40
2019-05-26T07:32:35.002Z,15.32
2019-05-26T07:34:36.303Z,15.32
2019-05-26T07:36:37.669Z,15.55
2019-05-26T07:38:38.934Z,15.90
2019-05-26T07:40:40.269Z,16.23
2019-05-26T07:42:41.529Z,16.37
2019-05-26T07:44:42.814Z,15.88
2019-05-26T07:46:44.352Z,17.67
2019-05-26T07:50:47.587Z,17.57
2019-05-26T07:52:48.853Z,17.17
2019-05-26T07:54:50.369Z,18.05
2019-05-26T07:56:51.882Z,17.85
2019-05-26T07:58:53.141Z,18.60
2019-05-26T08:00:54.717Z,17.57
2019-05-26T08:04:58.194Z,18.60
2019-05-26T08:06:59.526Z,18.17
2019-05-26T08:09:00.796Z,18.95
2019-05-26T08:11:02.104Z,18.52
2019-05-26T08:13:03.640Z,17.48
2019-05-26T08:15:06.987Z,17.52
2019-05-26T08:17:08.593Z,17.90
2019-05-26T08:19:09.867Z,16.50
2019-05-26T08:21:11.157Z,17.02
2019-05-26T08:23:12.422Z,17.02
2019-05-26T08:25:14.030Z,17.67
2019-05-26T08:29:16.517Z,17.75
2019-05-26T08:31:17.969Z,15.95
2019-05-26T08:33:19.238Z,16.17
2019-05-26T08:35:20.555Z,16.65
2019-05-26T08:37:21.811Z,17.20
2019-05-26T08:39:23.084Z,16.05
2019-05-26T08:41:24.377Z,15.50
2019-05-26T08:43:25.757Z,16.07
2019-05-26T08:45:27.090Z,15.80
2019-05-26T08:47:28.394Z,15.90
2019-05-26T08:49:29.671Z,15.03
2019-05-26T08:51:30.933Z,15.28
2019-05-26T08:53:32.206Z,14.43
2019-05-26T08:55:33.491Z,14.78
2019-05-26T08:57:34.758Z,15.10
2019-05-26T08:59:36.025Z,14.53
2019-05-26T09:01:37.554Z,15.45
2019-05-26T09:05:40.011Z,14.97
2019-05-26T09:07:41.405Z,15.60
2019-05-26T09:09:42.817Z,14.50
2019-05-26T09:11:44.170Z,14.58
2019-05-26T09:13:45.430Z,12.70
2019-05-26T09:15:46.820Z,13.55
2019-05-26T09:17:48.083Z,13.15
2019-05-26T09:19:49.689Z,13.55
2019-05-26T09:21:50.956Z,13.30
2019-05-26T09:23:52.221Z,14.40
2019-05-26T09:25:53.498Z,12.58
2019-05-26T09:27:54.811Z,14.85
2019-05-26T09:29:56.073Z,13.50
2019-05-26T09:31:57.374Z,14.47
2019-05-26T09:33:58.633Z,15.60
2019-05-26T09:35:59.914Z,14.78
2019-05-26T09:38:01.178Z,14.90
2019-05-26T09:40:06.548Z,15.05
2019-05-26T09:42:07.817Z,13.98
2019-05-26T09:44:09.218Z,14.98
2019-05-26T09:46:10.509Z,14.98
2019-05-26T09:48:12.025Z,15.78
2019-05-26T09:50:14.033Z,14.45
2019-05-26T09:52:18.337Z,15.23
2019-05-26T09:54:19.643Z,15.30
2019-05-26T09:56:20.918Z,15.45
2019-05-26T09:58:22.232Z,15.60
2019-05-26T10:00:23.999Z,14.70
2019-05-26T10:04:26.791Z,14.78
2019-05-26T10:08:29.214Z,13.83
2019-05-26T10:10:30.740Z,13.22
2019-05-26T10:14:33.772Z,14.20
2019-05-26T10:18:36.197Z,16.00
2019-05-26T10:20:37.493Z,13.98
2019-05-26T10:22:38.775Z,15.85
2019-05-26T10:24:40.125Z,18.32
2019-05-26T10:26:41.460Z,16.67
2019-05-26T10:28:42.728Z,13.58
2019-05-26T10:30:44.046Z,12.82
2019-05-26T10:32:45.485Z,11.48
2019-05-26T10:34:46.891Z,10.90
2019-05-26T10:36:48.242Z,11.00
2019-05-26T10:38:49.503Z,10.03
2019-05-26T10:40:50.800Z,10.65
2019-05-26T10:42:52.408Z,10.28
2019-05-26T10:46:54.956Z,16.95
2019-05-26T10:48:56.217Z,52.25
2019-05-26T10:50:57.625Z,17.20
2019-05-26T10:52:58.925Z,14.55
2019-05-26T10:55:00.193Z,20.32
2019-05-26T10:57:01.596Z,10.85
2019-05-26T10:59:03.177Z,11.68
2019-05-26T11:03:05.658Z,14.10
2019-05-26T11:05:07.331Z,10.78
2019-05-26T11:07:08.594Z,10.80
2019-05-26T11:09:09.873Z,11.63
2019-05-26T11:11:11.154Z,10.23
2019-05-26T11:13:16.706Z,10.43
2019-05-26T11:15:18.297Z,10.58
2019-05-26T11:19:20.773Z,10.58
2019-05-26T11:21:22.158Z,10.23
2019-05-26T11:23:23.805Z,10.08
2019-05-26T11:25:25.357Z,10.53
2019-05-26T11:27:26.643Z,8.98
2019-05-26T11:29:27.945Z,8.45
2019-05-26T11:31:29.219Z,10.40
2019-05-26T11:33:30.494Z,8.08
2019-05-26T11:35:31.878Z,8.35
2019-05-26T11:37:33.141Z,8.00
2019-05-26T11:39:34.513Z,6.20
2019-05-26T11:41:35.788Z,6.33
2019-05-26T11:43:37.054Z,5.50
2019-05-26T11:45:38.462Z,5.40
2019-05-26T11:47:39.744Z,6.62
2019-05-26T11:49:42.276Z,6.05
2019-05-26T11:53:45.106Z,9.65
2019-05-26T11:55:48.116Z,6.22
2019-05-26T11:59:50.749Z,17.82
2019-05-26T12:01:52.526Z,12.13
2019-05-26T12:03:53.791Z,9.13
2019-05-26T12:05:56.563Z,5.78
2019-05-26T12:07:58.046Z,7.95
2019-05-26T12:12:01.051Z,3.92
2019-05-26T12:14:02.353Z,3.90
2019-05-26T12:16:03.765Z,4.85
2019-05-26T12:18:05.037Z,5.47
2019-05-26T12:20:06.776Z,4.85
2019-05-26T12:22:08.066Z,4.85
2019-05-26T12:24:09.737Z,4.78
2019-05-26T12:26:11.066Z,5.15
2019-05-26T12:28:12.389Z,5.33
2019-05-26T12:30:15.817Z,4.42
2019-05-26T12:32:17.257Z,4.00
2019-05-26T12:36:19.930Z,5.33
2019-05-26T12:38:23.131Z,4.90
2019-05-26T12:40:24.539Z,5.03
2019-05-26T12:42:25.981Z,4.87
2019-05-26T12:44:28.797Z,4.85
2019-05-26T12:46:30.234Z,4.80
2019-05-26T12:50:32.853Z,4.10
2019-05-26T12:52:34.157Z,3.83
2019-05-26T12:54:35.569Z,4.28
2019-05-26T12:56:37.028Z,3.98
2019-05-26T12:58:38.429Z,4.50
2019-05-26T13:00:48.934Z,4.00
2019-05-26T13:02:43.280Z,5.10
2019-05-26T13:06:46.033Z,4.20
2019-05-26T13:08:47.502Z,4.65
2019-05-26T13:10:48.919Z,4.80
2019-05-26T13:12:50.226Z,4.08
2019-05-26T13:15:05.076Z,5.60
2019-05-26T13:16:55.161Z,4.50
2019-05-26T13:18:56.769Z,4.95
2019-05-26T13:20:58.111Z,4.70
2019-05-26T13:22:59.441Z,4.30
2019-05-26T13:25:09.472Z,4.58
2019-05-26T13:27:10.962Z,4.08
2019-05-26T13:29:12.254Z,4.62
2019-05-26T13:31:13.541Z,5.70
2019-05-26T13:33:14.854Z,6.70
2019-05-26T13:35:18.487Z,5.90
2019-05-26T13:37:19.761Z,6.17
2019-05-26T13:41:23.622Z,4.58
2019-05-26T13:43:24.893Z,5.03
2019-05-26T13:45:26.175Z,4.90
2019-05-26T13:47:27.563Z,8.05
2019-05-26T13:49:29.029Z,4.70
2019-05-26T13:51:30.334Z,4.50
2019-05-26T13:53:31.861Z,4.37
2019-05-26T13:55:33.221Z,5.97
2019-05-26T13:57:34.493Z,4.37
2019-05-26T13:59:35.801Z,4.78
2019-05-26T14:01:37.198Z,5.60
2019-05-26T14:03:38.590Z,5.70
2019-05-26T14:05:39.983Z,4.85
2019-05-26T14:09:42.567Z,5.60
2019-05-26T14:11:43.898Z,6.00
2019-05-26T14:13:45.631Z,4.97
2019-05-26T14:15:47.750Z,5.40
2019-05-26T14:17:53.133Z,4.92
2019-05-26T14:19:57.314Z,4.62
2019-05-26T14:21:58.719Z,4.80
2019-05-26T14:24:00.071Z,4.92
2019-05-26T14:26:01.449Z,4.42
2019-05-26T14:28:04.029Z,4.30
2019-05-26T14:30:06.045Z,4.60
2019-05-26T14:32:07.334Z,4.03
2019-05-26T14:34:08.619Z,4.10
2019-05-26T14:36:09.890Z,3.85
2019-05-26T14:38:11.169Z,3.98
2019-05-26T14:40:12.765Z,3.92
2019-05-26T14:44:15.441Z,3.90
2019-05-26T14:48:18.153Z,3.17
2019-05-26T14:50:19.939Z,3.40
2019-05-26T14:52:22.303Z,3.33
2019-05-26T14:54:23.569Z,3.62
2019-05-26T14:56:24.841Z,4.22
2019-05-26T14:58:26.108Z,3.75
2019-05-26T15:00:27.598Z,3.67
2019-05-26T15:04:31.278Z,4.33
2019-05-26T15:06:32.846Z,4.60
2019-05-26T15:08:34.130Z,4.70
2019-05-26T15:10:35.679Z,4.50
2019-05-26T15:14:38.667Z,4.60
2019-05-26T15:18:41.169Z,4.35
2019-05-26T15:20:42.438Z,4.47
2019-05-26T15:22:43.708Z,4.50
2019-05-26T15:24:44.997Z,4.05
2019-05-26T15:26:46.273Z,4.08
2019-05-26T15:28:47.546Z,3.75
2019-05-26T15:30:48.917Z,3.62
2019-05-26T15:32:50.205Z,3.98
2019-05-26T15:34:51.577Z,4.40
2019-05-26T15:36:53.849Z,4.62
2019-05-26T15:39:04.846Z,4.95
2019-05-26T15:41:06.603Z,4.75
2019-05-26T15:43:07.977Z,6.12
2019-05-26T15:45:09.750Z,5.00
2019-05-26T15:47:11.104Z,5.12
2019-05-26T15:49:13.377Z,4.62
2019-05-26T15:51:21.291Z,5.03
2019-05-26T15:53:24.893Z,5.17
2019-05-26T15:55:26.218Z,4.78
2019-05-26T15:57:27.568Z,5.20
2019-05-26T15:59:28.841Z,5.00
2019-05-26T16:01:30.112Z,5.17
2019-05-26T16:03:31.370Z,5.53
2019-05-26T16:05:32.637Z,5.65
2019-05-26T16:07:33.907Z,5.53
2019-05-26T16:09:35.172Z,5.20
2019-05-26T16:11:36.461Z,5.90
2019-05-26T16:13:38.304Z,5.90
2019-05-26T16:15:39.755Z,5.65
2019-05-26T16:17:41.028Z,5.53
2019-05-26T16:19:42.317Z,6.00
2019-05-26T16:21:43.588Z,6.03
2019-05-26T16:23:44.845Z,6.03
2019-05-26T16:25:46.114Z,6.37
2019-05-26T16:27:47.435Z,5.80
2019-05-26T16:29:48.704Z,6.20
2019-05-26T16:31:50.672Z,5.97
2019-05-26T16:33:52.203Z,5.75
2019-05-26T16:35:55.488Z,5.85
2019-05-26T16:37:56.651Z,6.00
2019-05-26T16:39:57.921Z,6.80
2019-05-26T16:41:59.289Z,6.20
2019-05-26T16:44:00.573Z,6.35
2019-05-26T16:46:01.958Z,6.47
2019-05-26T16:50:06.376Z,5.72
2019-05-26T16:52:07.657Z,5.90
2019-05-26T16:54:08.925Z,5.50
2019-05-26T16:56:10.251Z,5.58
2019-05-26T16:58:11.510Z,5.97
2019-05-26T17:00:12.976Z,6.20
2019-05-26T17:04:15.405Z,6.12
2019-05-26T17:06:16.692Z,5.45
2019-05-26T17:08:17.964Z,6.00
2019-05-26T17:10:19.605Z,5.72
2019-05-26T17:14:23.314Z,5.60
2019-05-26T17:18:26.020Z,6.12
2019-05-26T17:20:27.493Z,5.50
2019-05-26T17:22:28.753Z,5.87
2019-05-26T17:24:30.033Z,5.30
2019-05-26T17:26:31.334Z,5.42
2019-05-26T17:28:32.618Z,5.50
2019-05-26T17:30:33.893Z,5.53
2019-05-26T17:32:35.149Z,5.75
2019-05-26T17:34:36.517Z,5.53
2019-05-26T17:36:37.841Z,5.45
2019-05-26T17:38:39.208Z,5.37
2019-05-26T17:40:40.742Z,4.83
2019-05-26T17:42:42.162Z,4.90
2019-05-26T17:44:43.556Z,5.37
2019-05-26T17:46:44.855Z,5.45
2019-05-26T17:48:46.525Z,5.35
2019-05-26T17:52:49.250Z,5.72
2019-05-26T17:54:50.540Z,5.65
2019-05-26T17:56:51.841Z,5.33
2019-05-26T17:58:53.140Z,5.30
2019-05-26T18:00:54.502Z,5.50
2019-05-26T18:02:55.918Z,5.40
2019-05-26T18:04:57.189Z,5.37
2019-05-26T18:06:58.454Z,5.00
2019-05-26T18:08:59.764Z,5.00
2019-05-26T18:11:01.147Z,4.90
2019-05-26T18:13:02.702Z,5.40
2019-05-26T18:15:06.429Z,5.40
2019-05-26T18:17:07.701Z,5.33
2019-05-26T18:19:08.973Z,5.00
2019-05-26T18:21:10.254Z,5.40
2019-05-26T18:23:11.525Z,4.83
2019-05-26T18:25:12.874Z,4.90
2019-05-26T18:27:14.146Z,5.08
2019-05-26T18:29:15.450Z,5.25
2019-05-26T18:31:16.729Z,5.17
2019-05-26T18:33:18.057Z,4.83
2019-05-26T18:35:19.375Z,5.53
2019-05-26T18:37:20.734Z,4.87
2019-05-26T18:39:22.075Z,4.70
2019-05-26T18:41:23.415Z,5.10
2019-05-26T18:43:25.807Z,4.85
2019-05-26T18:45:27.142Z,5.35
2019-05-26T18:47:28.481Z,5.00
2019-05-26T18:49:29.754Z,5.35
2019-05-26T18:51:31.058Z,4.85
2019-05-26T18:53:32.414Z,5.05
2019-05-26T18:55:33.781Z,4.67
2019-05-26T18:57:35.203Z,4.67
2019-05-26T18:59:36.477Z,4.65
2019-05-26T19:01:37.742Z,4.58
2019-05-26T19:03:39.015Z,4.60
2019-05-26T19:05:41.401Z,4.62
2019-05-26T19:07:42.686Z,4.58
2019-05-26T19:09:43.973Z,4.95
2019-05-26T19:11:45.266Z,3.90
2019-05-26T19:13:46.539Z,4.50
2019-05-26T19:15:47.810Z,3.90
2019-05-26T19:17:49.081Z,4.55
2019-05-26T19:19:50.373Z,4.35
2019-05-26T19:21:51.649Z,4.28
2019-05-26T19:23:52.910Z,4.33
2019-05-26T19:25:54.247Z,4.12
2019-05-26T19:27:55.618Z,4.83
2019-05-26T19:29:57.002Z,4.65
2019-05-26T19:31:58.454Z,4.33
2019-05-26T19:33:59.796Z,4.78
2019-05-26T19:36:01.079Z,4.22
2019-05-26T19:38:02.479Z,4.47
2019-05-26T19:40:05.049Z,4.75
2019-05-26T19:42:06.560Z,4.37
2019-05-26T19:46:09.115Z,4.75
2019-05-26T19:48:10.657Z,5.30
2019-05-26T19:54:15.445Z,5.10
2019-05-26T19:56:16.757Z,5.20
2019-05-26T19:58:18.023Z,4.90
2019-05-26T20:00:21.600Z,5.03
2019-05-26T20:02:22.974Z,4.83
2019-05-26T20:04:24.391Z,4.92
2019-05-26T20:08:27.055Z,5.17
2019-05-26T20:10:28.360Z,5.47
2019-05-26T20:12:29.734Z,4.67
2019-05-26T20:14:31.349Z,4.70
2019-05-26T20:18:33.773Z,4.67
2019-05-26T20:20:35.102Z,5.10
2019-05-26T20:22:36.595Z,5.60
2019-05-26T20:24:37.853Z,4.87
2019-05-26T20:26:39.128Z,5.05
2019-05-26T20:28:40.447Z,5.12
2019-05-26T20:30:41.769Z,5.10
2019-05-26T20:32:43.143Z,5.15
2019-05-26T20:34:44.437Z,5.42
2019-05-26T20:36:45.701Z,4.87
2019-05-26T20:38:46.964Z,4.67
2019-05-26T20:40:48.242Z,5.35
2019-05-26T20:42:49.625Z,5.75
2019-05-26T20:44:50.954Z,5.30
2019-05-26T20:46:52.238Z,5.90
2019-05-26T20:48:53.505Z,7.90
2019-05-26T20:50:54.792Z,5.45
2019-05-26T20:52:56.089Z,5.47
2019-05-26T20:54:57.429Z,5.50
2019-05-26T20:56:58.891Z,5.70
2019-05-26T21:01:01.517Z,5.72
2019-05-26T21:03:02.805Z,5.80
2019-05-26T21:05:05.462Z,6.28
2019-05-26T21:07:06.991Z,5.47
2019-05-26T21:11:11.660Z,5.42
2019-05-26T21:15:14.439Z,5.42
2019-05-26T21:19:17.848Z,5.42
2019-05-26T21:21:19.198Z,6.75
2019-05-26T21:23:22.688Z,6.62
2019-05-26T21:25:23.630Z,6.60
2019-05-26T21:27:24.900Z,6.53
2019-05-26T21:29:26.168Z,7.47
2019-05-26T21:31:27.453Z,7.97
2019-05-26T21:33:28.720Z,6.58
2019-05-26T21:35:29.992Z,6.30
2019-05-26T21:37:31.282Z,6.15
2019-05-26T21:39:33.010Z,6.00
2019-05-26T21:43:35.460Z,5.78
2019-05-26T21:45:36.740Z,6.15
2019-05-26T21:47:39.030Z,6.05
2019-05-26T21:49:40.350Z,5.70
2019-05-26T21:51:41.696Z,5.42
2019-05-26T21:53:42.983Z,5.80
2019-05-26T21:55:44.254Z,5.78
2019-05-26T21:57:45.545Z,6.40
2019-05-26T21:59:46.866Z,6.12
2019-05-26T22:01:48.389Z,5.58
2019-05-26T22:05:50.813Z,5.30
2019-05-26T22:07:52.292Z,5.95
2019-05-26T22:09:53.549Z,6.12
2019-05-26T22:11:54.817Z,6.65
2019-05-26T22:13:56.085Z,6.65
2019-05-26T22:15:57.362Z,6.87
2019-05-26T22:17:59.638Z,6.55
2019-05-26T22:20:01.534Z,5.85
2019-05-26T22:22:02.811Z,5.60
2019-05-26T22:24:04.111Z,5.80
2019-05-26T22:26:05.462Z,5.90
2019-05-26T22:28:06.841Z,5.78
2019-05-26T22:30:08.605Z,6.60
2019-05-26T22:32:10.029Z,6.35
2019-05-26T22:34:11.386Z,6.33
2019-05-26T22:36:12.653Z,5.35
2019-05-26T22:38:14.219Z,5.92
2019-05-26T22:42:16.933Z,5.72
2019-05-26T22:44:18.196Z,7.12
2019-05-26T22:46:19.574Z,6.80
2019-05-26T22:48:20.845Z,5.80
2019-05-26T22:50:22.106Z,6.50
2019-05-26T22:52:23.378Z,6.28
2019-05-26T22:54:24.649Z,5.95
2019-05-26T22:56:25.921Z,6.28
2019-05-26T22:58:27.190Z,6.28
2019-05-26T23:00:28.718Z,6.33
2019-05-26T23:02:30.191Z,6.37
2019-05-26T23:04:31.561Z,6.50
2019-05-26T23:06:32.925Z,6.45
2019-05-26T23:08:34.201Z,5.92
2019-05-26T23:10:35.467Z,6.37
2019-05-26T23:12:36.751Z,6.45
2019-05-26T23:14:39.109Z,6.05
2019-05-26T23:16:40.381Z,6.20
2019-05-26T23:18:42.286Z,6.70
2019-05-26T23:20:43.598Z,6.30
2019-05-26T23:22:45.158Z,6.22
2019-05-26T23:24:46.432Z,6.58
2019-05-26T23:26:47.741Z,7.33
2019-05-26T23:28:49.031Z,7.17
2019-05-26T23:30:50.309Z,6.30
2019-05-26T23:32:51.582Z,5.65
2019-05-26T23:34:52.862Z,6.83
2019-05-26T23:36:54.161Z,6.00
2019-05-26T23:38:55.423Z,6.22
2019-05-26T23:40:56.689Z,6.35
2019-05-26T23:42:57.955Z,7.15
2019-05-26T23:44:59.237Z,6.37
2019-05-26T23:47:00.508Z,6.05
2019-05-26T23:49:01.821Z,5.85
2019-05-26T23:51:03.197Z,6.78
2019-05-26T23:53:04.471Z,6.33
2019-05-26T23:55:06.450Z,6.87
2019-05-26T23:57:07.718Z,6.58
2019-05-26T23:59:08.981Z,7.00
